This is the latest recevied weather packets stored in our database for station/object KA8OAD-10. If no packets are shown the sender has not sent any weather packets the latest 1 day(s).
| Time | Temp. | Humidity | Pressure | Rain* | Wind** | Luminosity | Snow |
|---|---|---|---|---|---|---|---|
| 1778089352 | 16.67° C | 53% | 1010 hPa | 0 mm | - | 1079 W/m² | - |
| 1778087252 | 14.44° C | 55% | 1010 hPa | 0 mm | - | 519 W/m² | - |
| 1778086653 | 14.44° C | 58% | 1010 hPa | 0 mm | - | 397 W/m² | - |
| 1778085151 | 12.78° C | 66% | 1009.9 hPa | 0 mm | - | 243 W/m² | - |
| 1778084851 | 13.33° C | 66% | 1009.7 hPa | 0 mm | - | 158 W/m² | - |
| 1778084253 | 13.33° C | 67% | 1009.4 hPa | 0 mm | - | 90 W/m² | - |
| 1778082450 | 12.22° C | 79% | 1009.7 hPa | 0 mm | - | 895 W/m² | - |
| 1778081853 | 11.67° C | 82% | 1009.3 hPa | 0 mm | - | 285 W/m² | - |
| 1778080350 | 10° C | 88% | 1008.9 hPa | 0 mm | - | 385 W/m² | - |
| 1778078851 | 9.44° C | 93% | 1008.8 hPa | 0 mm | - | 236 W/m² | - |
| 1778076452 | 8.89° C | 93% | 1008.7 hPa | 0 mm | - | 167 W/m² | - |
| 1778076150 | 8.89° C | 93% | 1008.7 hPa | 0 mm | - | 137 W/m² | - |
| 1778075850 | 8.89° C | 93% | 1008.8 hPa | 0 mm | - | 132 W/m² | - |
| 1778072552 | 8.33° C | 93% | 1008 hPa | 0 mm | - | 58 W/m² | - |
| 1778071951 | 8.33° C | 93% | 1007.8 hPa | 0 mm | - | 105 W/m² | - |
| 1778070152 | 7.78° C | 93% | 1007.4 hPa | 0 mm | - | 91 W/m² | - |
| 1778069593 | 7.78° C | 93% | 1007.5 hPa | 0 mm | - | 42 W/m² | - |
| 1778068053 | 7.78° C | 93% | 1007.6 hPa | 0 mm | - | 11 W/m² | - |
| 1778063853 | 7.78° C | 93% | 1005.9 hPa | 0.25 mm | - | 0 W/m² | - |
| 1778062651 | 7.78° C | 93% | 1005.7 hPa | 0.76 mm | - | 0 W/m² | - |
| 1778061453 | 7.78° C | 92% | 1006 hPa | 0.76 mm | - | 0 W/m² | - |
| 1778059053 | 7.22° C | 92% | 1006.4 hPa | 0.51 mm | - | 0 W/m² | - |
| 1778057250 | 7.22° C | 92% | 1006 hPa | 1.78 mm | - | 0 W/m² | - |
| 1778055451 | 7.22° C | 92% | 1006.1 hPa | 2.54 mm | - | 0 W/m² | - |
| 1778054253 | 7.78° C | 92% | 1006.4 hPa | 2.54 mm | - | 0 W/m² | - |
* Rain latest hour (hover to see other rain measurements)
** Current wind speed in m/s (hover to see current wind gust speed)